D/T METAR WX W/DIR W/SPE G/SPE TEMP DEWP
9/12/19 11:50 EGVN 091150Z 32014KT 9999 FEW040 09/01 Q1013 NOSIG RMK BLU BLU NW (320°) 16.1mph 9°C 1°C
9/12/19 11:20 EGVN 091120Z 32017KT 9999 FEW038 09/02 Q1013 NOSIG RMK BLU BLU NW (320°) 19.6mph 9°C 2°C
9/12/19 10:50 EGVN 091050Z 32017G27KT 9999 FEW025 08/03 Q1012 NOSIG RMK BLU BLU NW (320°) 19.6mph 31.1mph 8°C 3°C
9/12/19 10:20 EGVN 091020Z 32017KT 9999 -RA FEW030 09/03 Q1011 NOSIG RMK BLU BLU -RA NW (320°) 19.6mph 9°C 3°C
9/12/19 09:50 EGVN 090950Z 32016G26KT 9999 FEW027 08/03 Q1010 NOSIG RMK BLU BLU NW (320°) 18.4mph 29.9mph 8°C 3°C
9/12/19 09:20 EGVN 090920Z 32016KT 9999 FEW033 08/03 Q1009 NOSIG RMK BLU BLU NW (320°) 18.4mph 8°C 3°C
9/12/19 08:50 EGVN 090850Z 31015KT 9999 FEW025 08/03 Q1007 NOSIG RMK BLU BLU NW (310°) 17.3mph 8°C 3°C
9/12/19 08:20 EGVN 090820Z 32014G24KT 9999 FEW033 08/03 Q1006 NOSIG RMK BLU BLU NW (320°) 16.1mph 27.6mph 8°C 3°C
9/12/19 07:50 EGVN 090750Z 32014KT 9999 SCT032 08/03 Q1005 NOSIG RMK BLU BLU NW (320°) 16.1mph 8°C 3°C
9/12/19 06:50 EGVN 090650Z 31014KT 9999 SCT033 08/03 Q1001 NOSIG RMK BLU BLU NW (310°) 16.1mph 8°C 3°C
9/12/19 06:24 EGVN 090624Z 31014KT 9999 -RA SCT035 BKN045 08/04 Q1000 NOSIG RMK BLU BLU -RA NW (310°) 16.1mph 8°C 4°C
9/12/19 05:50 EGVN 090550Z 32018KT 9999 BKN035 08/04 Q0998 NOSIG RMK BLU BLU NW (320°) 20.7mph 8°C 4°C
9/12/19 05:20 EGVN 090520Z 32021G33KT 9999 BKN032 08/04 Q0997 NOSIG RMK BLU BLU NW (320°) 24.2mph 38.0mph 8°C 4°C
9/12/19 04:50 EGVN 090450Z 32021G34KT 9999 BKN025 08/05 Q0995 NOSIG RMK BLU BLU NW (320°) 24.2mph 39.1mph 8°C 5°C
9/12/19 04:20 EGVN 090420Z 31016G27KT 9999 FEW022 BKN030 08/06 Q0994 NOSIG RMK BLU BLU NW (310°) 18.4mph 31.1mph 8°C 6°C
9/12/19 03:50 EGVN 090350Z 27009KT 9999 -SHRA SCT020 BKN030 07/06 Q0992 TEMPO FEW020 BKN030 RMK WHT TEMPO BLU -SHRA W (270°) 10.4mph 7°C 6°C
9/12/19 03:20 EGVN 090320Z 25009KT 9999 -SHRA BKN020 07/05 Q0991 TEMPO BKN025 -SHRA WSW (250°) 10.4mph 7°C 5°C
9/12/19 02:50 EGVN 090250Z 25010KT 9999 BKN030 07/05 Q0991 NOSIG RMK BLU BLU WSW (250°) 11.5mph 7°C 5°C
9/12/19 02:20 EGVN 090220Z 25011KT 9999 BKN035 07/05 Q0991 NOSIG RMK BLU BLU WSW (250°) 12.7mph 7°C 5°C
9/12/19 01:50 EGVN 090150Z 25008KT 9999 BKN030 07/04 Q0991 TEMPO 6000 SHRA BKN020 WSW (250°) 9.2mph 7°C 4°C
9/12/19 01:20 EGVN 090120Z 26008KT 9999 BKN036 06/04 Q0991 NOSIG RMK BLU BLU W (260°) 9.2mph 6°C 4°C
9/12/19 00:50 EGVN 090050Z 26010KT 9999 BKN035 07/04 Q0991 NOSIG RMK BLU BLU W (260°) 11.5mph 7°C 4°C
9/12/19 00:20 EGVN 090020Z 26011KT 9999 FEW011 BKN028 06/05 Q0991 NOSIG RMK BLU BLU W (260°) 12.7mph 6°C 5°C
9/12/19 00:20 EGVN 090020Z 26011KT 9999 FEW011 BKN028 06/05 Q0991 NOSIG W (260°) 12.7mph 6°C 5°C
8/12/19 23:20 EGVN 082320Z 23007KT 9999 FEW011 BKN030 06/05 Q0989 NOSIG RMK BLU BLU SW (230°) 8.1mph 6°C 5°C
8/12/19 22:50 EGVN 082250Z 21004KT 9999 SHRA FEW012 SCT015 BKN030 05/04 Q0990 TEMPO FEW015 BKN030 SHRA SSW (210°) 4.6mph 5°C 4°C
8/12/19 22:20 EGVN 082220Z 22009KT 9999 -SHRA FEW020 BKN030 05/04 Q0991 TEMPO SCT020 -SHRA SW (220°) 10.4mph 5°C 4°C
8/12/19 21:50 EGVN 082150Z 22010KT 9999 FEW015 BKN030 05/03 Q0991 TEMPO SCT015 RMK BLU TEMPO WHT SW (220°) 11.5mph 5°C 3°C
8/12/19 21:20 EGVN 082120Z 22011KT 9999 BKN028 06/03 Q0992 NOSIG RMK BLU BLU SW (220°) 12.7mph 6°C 3°C
8/12/19 20:50 EGVN 082050Z 23007KT 9999 FEW018 BKN025 06/04 Q0993 NOSIG RMK BLU BLU SW (230°) 8.1mph 6°C 4°C
8/12/19 20:20 EGVN 082020Z 23010KT 9999 FEW020 BKN025 06/03 Q0994 TEMPO SCT020 RMK BLU TEMPO WHT SW (230°) 11.5mph 6°C 3°C
8/12/19 19:50 EGVN 081950Z 22009KT 9999 BKN025 06/03 Q0994 NOSIG RMK BLU BLU SW (220°) 10.4mph 6°C 3°C
8/12/19 19:50 EGVN 081950Z 22009KT 9999 BKN025 06/03 Q0994 NOSIG SW (220°) 10.4mph 6°C 3°C
8/12/19 18:50 EGVN 081850Z 22008KT 9999 SCT022 SCT040 06/04 Q0995 BECMG SCT030 RMK WHT BECMG BLU SW (220°) 9.2mph 6°C 4°C
8/12/19 18:20 EGVN 081820Z 23008G18KT 9999 FEW022 06/04 Q0996 NOSIG RMK BLU BLU SW (230°) 9.2mph 20.7mph 6°C 4°C
8/12/19 17:50 EGVN 081750Z 22006KT 9999 FEW022 SCT038 BKN120 06/03 Q0996 NOSIG RMK BLU BLU SW (220°) 6.9mph 6°C 3°C
8/12/19 17:20 EGVN 081720Z 24010G20KT 9999 FEW022 06/03 Q0996 NOSIG RMK BLU BLU WSW (240°) 11.5mph 23.0mph 6°C 3°C
8/12/19 16:50 EGVN 081650Z 23009KT 9999 FEW020CB 06/03 Q0997 NOSIG RMK BLU BLU SW (230°) 10.4mph 6°C 3°C
8/12/19 16:20 EGVN 081620Z 23007G25KT 5000 SHRA SCT022CB BKN032 07/04 Q0997 BECMG 9999 NSW SCT032 RMK WHT BECMG BLU SHRA SW (230°) 8.1mph 28.8mph 7°C 4°C
8/12/19 15:50 EGVN 081550Z 23008KT 9999 FEW024 07/04 Q0997 NOSIG RMK BLU BLU SW (230°) 9.2mph 7°C 4°C
8/12/19 15:20 EGVN 081520Z 24009KT 9999 FEW018CB SCT024 07/04 Q0997 BECMG SCT032 WSW (240°) 10.4mph 7°C 4°C
8/12/19 14:50 EGVN 081450Z 25009KT 9999 -SHRA FEW020CB SCT032 07/04 Q0997 NOSIG RMK BLU BLU -SHRA WSW (250°) 10.4mph 7°C 4°C
8/12/19 14:20 EGVN 081420Z 25012KT 9999 VCSH FEW020CB SCT032 BKN050 07/04 Q0998 NOSIG RMK BLU BLU VCSH WSW (250°) 13.8mph 7°C 4°C
8/12/19 14:20 EGVN 081420Z 25012KT 9999 VCSH FEW020CB SCT032 BKN050 07/04 Q0998 NOSIG VCSH WSW (250°) 13.8mph 7°C 4°C
8/12/19 13:20 EGVN 081320Z 25010G20KT 9999 FEW032 09/04 Q0998 TEMPO 6000 SHRA SCT020CB RMK BLU TEMPO WHT WSW (250°) 11.5mph 23.0mph 9°C 4°C
8/12/19 12:50 EGVN 081250Z 25011G21KT 9999 VCSH FEW032 09/04 Q0999 NOSIG RMK BLU BLU VCSH WSW (250°) 12.7mph 24.2mph 9°C 4°C
8/12/19 11:50 EGVN 081150Z 25013G24KT 9999 FEW026 10/04 Q0999 NOSIG RMK BLU BLU WSW (250°) 15.0mph 27.6mph 10°C 4°C
8/12/19 11:20 EGVN 081120Z 25014G29KT 9999 SCT026 09/04 Q1000 NOSIG RMK BLU BLU WSW (250°) 16.1mph 33.4mph 9°C 4°C